»·PEaware :: JBU5150 KDEN-KSFO

JBU5150 :: KDEN-KSFO

FLIGHT INFORMATION

Flight Status: Arrived
Operator:
JetBlue Airways
More flights by this operator :: More flights under this callsign
Pilot: Michael G. (10425)
Aircraft: AIRBUS A320
(A320)
More flights by this aircraft type
Origin: KDEN Denver Intl
United States
Destination: KSFO San Francisco Intl
United States
More flights between these airports :: More routes between these airports
Route: +CONNR5 DBL J80 MLF KATTS Q136 OAL INYOE ALWYS2
File this flight plan on PilotEdge
Remarks: NONE
Altitude:
(Current/Filed)
34,000ft
Speed:
(Current/Filed)
320kts
Departed: 01-Dec-19 04:38 PM
Arrived: 01-Dec-19 07:19 PM
Distance/Time
Traveled:
838nm/2:41
Distance/Time
To Go:
Arrived

Flight Plot

Page will automatically refresh every two minutes.

Flight plan parsing failed; only flown route is shown


Map Options




Map Legend


Flown Route
Filed Route
Departure Airport
Arrival Airport
Navaid (VOR, NDB)
Fix

Horizontal Profiles

Position Reports

Time Latitude Longitude Heading Altitude Ground
Speed
01-Dec-19 16:19 39.854487 -104.676764 208 5445ft 0kts
01-Dec-19 16:20 39.854487 -104.676764 208 5445ft 0kts
01-Dec-19 16:21 39.854487 -104.676764 208 5445ft 0kts
01-Dec-19 16:22 39.854487 -104.676764 208 5445ft 0kts
01-Dec-19 16:23 39.854487 -104.676764 208 5445ft 0kts
01-Dec-19 16:24 39.854487 -104.676765 208 5445ft 0kts
01-Dec-19 16:25 39.854962 -104.676289 277 5445ft 0kts
01-Dec-19 16:26 39.854962 -104.676290 277 5445ft 0kts
01-Dec-19 16:27 39.854962 -104.676291 277 5445ft 0kts
01-Dec-19 16:28 39.854962 -104.676293 277 5445ft 0kts
01-Dec-19 16:29 39.855001 -104.676456 299 5445ft 3kts
01-Dec-19 16:30 39.855178 -104.676822 303 5445ft 0kts
01-Dec-19 16:31 39.855723 -104.677740 309 5445ft 8kts
01-Dec-19 16:32 39.856014 -104.679512 269 5445ft 0kts
01-Dec-19 16:33 39.856021 -104.682051 270 5445ft 15kts
01-Dec-19 16:34 39.851940 -104.684092 180 5445ft 20kts
01-Dec-19 16:35 39.846694 -104.684127 180 5445ft 21kts
01-Dec-19 16:36 39.840693 -104.684230 187 5445ft 4kts
01-Dec-19 16:37 39.840713 -104.696911 271 5445ft 138kts
01-Dec-19 16:38 39.840317 -104.749653 268 7556ft 143kts
01-Dec-19 16:39 39.839459 -104.815749 268 8568ft 216kts
01-Dec-19 16:40 39.838470 -104.888810 267 9919ft 277kts
01-Dec-19 16:41 39.837672 -105.001325 269 11493ft 341kts
01-Dec-19 16:42 39.813006 -105.127229 255 13721ft 368kts
01-Dec-19 16:43 39.787788 -105.243065 256 15836ft 376kts
01-Dec-19 16:44 39.759502 -105.377172 256 17977ft 387kts
01-Dec-19 16:45 39.730350 -105.513947 256 20089ft 395kts
01-Dec-19 16:46 39.701632 -105.652240 257 21994ft 400kts
01-Dec-19 16:47 39.684712 -105.795777 263 23688ft 405kts
01-Dec-19 16:48 39.668634 -105.940155 263 25245ft 409kts
01-Dec-19 16:49 39.652057 -106.087825 264 26749ft 411kts
01-Dec-19 16:50 39.635346 -106.234683 265 28128ft 413kts
01-Dec-19 16:51 39.606644 -106.377911 254 29976ft 408kts
01-Dec-19 16:52 39.564946 -106.504161 254 32303ft 380kts
01-Dec-19 16:53 39.527243 -106.622616 254 34389ft 349kts
01-Dec-19 16:54 39.489933 -106.738671 254 34440ft 347kts
01-Dec-19 16:55 39.452561 -106.853847 253 34454ft 346kts
01-Dec-19 16:56 39.424400 -106.970982 260 34426ft 337kts
01-Dec-19 16:57 39.401884 -107.089926 259 34287ft 341kts
01-Dec-19 16:58 39.378943 -107.208148 260 34448ft 343kts
01-Dec-19 16:59 39.355638 -107.328151 259 34438ft 340kts
01-Dec-19 17:00 39.332617 -107.445939 259 34491ft 337kts
01-Dec-19 17:01 39.309296 -107.564404 259 34450ft 341kts
01-Dec-19 17:02 39.289270 -107.665450 259 34430ft 341kts
01-Dec-19 17:03 39.271660 -107.754009 259 34416ft 336kts
01-Dec-19 17:04 39.250692 -107.859239 259 34491ft 342kts
01-Dec-19 17:05 39.226925 -107.977344 259 34454ft 340kts
01-Dec-19 17:06 39.203230 -108.094502 258 34371ft 336kts
01-Dec-19 17:07 39.179317 -108.212523 258 34411ft 341kts
01-Dec-19 17:08 39.155213 -108.330435 258 34417ft 340kts
01-Dec-19 17:09 39.130946 -108.448728 258 34413ft 341kts
01-Dec-19 17:10 39.106581 -108.566692 257 34942ft 341kts
01-Dec-19 17:11 39.082222 -108.683728 257 36160ft 331kts
01-Dec-19 17:12 39.058600 -108.798935 259 36327ft 335kts
01-Dec-19 17:13 39.041605 -108.914783 260 36459ft 332kts
01-Dec-19 17:14 39.024150 -109.032870 260 36451ft 332kts
01-Dec-19 17:15 39.006771 -109.149401 259 36430ft 331kts
01-Dec-19 17:16 38.989389 -109.265433 259 36360ft 330kts
01-Dec-19 17:17 38.971798 -109.382084 259 36347ft 333kts
01-Dec-19 17:18 38.954000 -109.498927 259 36349ft 335kts
01-Dec-19 17:19 38.936008 -109.616428 259 36398ft 335kts
01-Dec-19 17:20 38.917932 -109.733652 259 36443ft 332kts
01-Dec-19 17:21 38.899937 -109.849759 258 36365ft 332kts
01-Dec-19 17:22 38.881703 -109.965881 258 36349ft 333kts
01-Dec-19 17:23 38.863476 -110.082008 258 36349ft 335kts
01-Dec-19 17:24 38.844767 -110.200104 258 36438ft 335kts
01-Dec-19 17:25 38.826073 -110.317243 257 36440ft 334kts
01-Dec-19 17:26 38.807306 -110.433730 257 36381ft 333kts
01-Dec-19 17:27 38.788481 -110.550212 257 36376ft 335kts
01-Dec-19 17:28 38.769436 -110.667044 257 36465ft 334kts
01-Dec-19 17:29 38.750208 -110.784144 257 36472ft 334kts
01-Dec-19 17:30 38.731026 -110.900579 257 36441ft 334kts
01-Dec-19 17:31 38.711662 -111.017034 257 36460ft 333kts
01-Dec-19 17:32 38.692222 -111.133116 256 36374ft 334kts
01-Dec-19 17:33 38.673004 -111.247444 256 36360ft 333kts
01-Dec-19 17:34 38.653048 -111.365301 256 36359ft 335kts
01-Dec-19 17:35 38.633206 -111.481605 256 36430ft 335kts
01-Dec-19 17:36 38.613161 -111.598486 256 36422ft 335kts
01-Dec-19 17:37 38.593078 -111.714822 256 36354ft 335kts
01-Dec-19 17:38 38.573523 -111.827300 255 36316ft 336kts
01-Dec-19 17:39 38.552469 -111.947891 255 36341ft 336kts
01-Dec-19 17:40 38.531917 -112.064491 255 36401ft 335kts
01-Dec-19 17:41 38.511396 -112.180531 255 36371ft 335kts
01-Dec-19 17:42 38.490726 -112.296577 255 36342ft 335kts
01-Dec-19 17:43 38.470168 -112.411397 255 36278ft 334kts
01-Dec-19 17:44 38.449086 -112.528294 255 36247ft 335kts
01-Dec-19 17:45 38.428066 -112.644228 255 36313ft 334kts
01-Dec-19 17:46 38.407035 -112.759503 254 36322ft 334kts
01-Dec-19 17:47 38.385901 -112.874595 254 36320ft 333kts
01-Dec-19 17:48 38.364770 -112.989190 255 36280ft 333kts
01-Dec-19 17:49 38.360659 -113.107994 265 36269ft 337kts
01-Dec-19 17:50 38.361382 -113.227432 264 36238ft 337kts
01-Dec-19 17:52 38.361839 -113.346987 264 36316ft 336kts
01-Dec-19 17:53 38.362117 -113.466369 263 36322ft 336kts
01-Dec-19 17:54 38.362329 -113.583355 263 36277ft 336kts
01-Dec-19 17:55 38.362392 -113.704539 263 36226ft 336kts
01-Dec-19 17:56 38.362347 -113.823731 263 36220ft 336kts
01-Dec-19 17:57 38.362161 -113.942963 263 36221ft 337kts
01-Dec-19 17:58 38.361898 -114.062391 263 36257ft 337kts
01-Dec-19 17:59 38.361494 -114.179217 263 36284ft 337kts
01-Dec-19 18:00 38.360954 -114.301266 263 36300ft 336kts
01-Dec-19 18:01 38.360297 -114.420176 263 36280ft 335kts
01-Dec-19 18:02 38.359523 -114.538692 263 36206ft 335kts
01-Dec-19 18:03 38.358626 -114.657460 262 36212ft 336kts
01-Dec-19 18:04 38.357636 -114.774579 262 36246ft 337kts
01-Dec-19 18:05 38.356457 -114.896479 262 36276ft 337kts
01-Dec-19 18:06 38.355208 -115.015784 262 36238ft 335kts
01-Dec-19 18:07 38.353859 -115.134307 262 36193ft 335kts
01-Dec-19 18:08 38.352349 -115.253230 261 36199ft 337kts
01-Dec-19 18:09 38.350753 -115.371045 261 36247ft 338kts
01-Dec-19 18:10 38.348978 -115.492566 261 36278ft 337kts
01-Dec-19 18:11 38.347118 -115.611967 261 36283ft 335kts
01-Dec-19 18:11 38.345503 -115.710599 261 36212ft 334kts
01-Dec-19 18:13 38.343066 -115.848790 261 36177ft 334kts
01-Dec-19 18:14 38.341393 -115.937358 260 36163ft 336kts
01-Dec-19 18:14 38.339510 -116.037492 260 36181ft 338kts
01-Dec-19 18:15 38.337080 -116.157109 260 36203ft 337kts
01-Dec-19 18:17 38.334087 -116.296480 260 36205ft 338kts
01-Dec-19 18:17 38.320582 -116.392934 249 36177ft 330kts
01-Dec-19 18:18 38.294692 -116.504846 250 36207ft 330kts
01-Dec-19 18:19 38.269361 -116.617541 249 36240ft 330kts
01-Dec-19 18:20 38.243922 -116.729635 249 36266ft 330kts
01-Dec-19 18:21 38.218306 -116.841951 249 36219ft 330kts
01-Dec-19 18:22 38.192647 -116.953988 249 36181ft 331kts
01-Dec-19 18:23 38.166811 -117.066073 249 36190ft 331kts
01-Dec-19 18:24 38.140841 -117.178380 249 36214ft 331kts
01-Dec-19 18:25 38.114850 -117.290429 249 36238ft 330kts
01-Dec-19 18:26 38.089016 -117.402465 249 36256ft 329kts
01-Dec-19 18:27 38.063136 -117.513982 249 36178ft 330kts
01-Dec-19 18:28 38.037043 -117.625904 248 36201ft 330kts
01-Dec-19 18:29 38.010989 -117.737220 248 36266ft 330kts
01-Dec-19 18:30 37.994368 -117.853048 255 36263ft 336kts
01-Dec-19 18:31 37.982295 -117.970182 255 36261ft 335kts
01-Dec-19 18:32 37.969839 -118.087351 255 36221ft 335kts
01-Dec-19 18:33 37.957295 -118.204373 255 36194ft 335kts
01-Dec-19 18:34 37.944662 -118.321301 255 36174ft 335kts
01-Dec-19 18:35 37.931891 -118.438258 254 36154ft 334kts
01-Dec-19 18:36 37.919118 -118.554212 254 36154ft 330kts
01-Dec-19 18:37 37.906248 -118.669174 254 36185ft 334kts
01-Dec-19 18:38 37.893140 -118.786725 254 36196ft 337kts
01-Dec-19 18:39 37.879762 -118.904240 254 36171ft 337kts
01-Dec-19 18:40 37.866397 -119.021572 254 36135ft 335kts
01-Dec-19 18:41 37.853035 -119.137487 253 36131ft 330kts
01-Dec-19 18:42 37.839412 -119.253829 253 36167ft 338kts
01-Dec-19 18:43 37.825651 -119.371516 253 36170ft 339kts
01-Dec-19 18:44 37.811699 -119.489294 253 36167ft 338kts
01-Dec-19 18:45 37.797623 -119.606937 253 36165ft 338kts
01-Dec-19 18:46 37.783397 -119.724756 253 36165ft 338kts
01-Dec-19 18:47 37.769230 -119.841849 253 35721ft 335kts
01-Dec-19 18:48 37.754866 -119.958706 253 34734ft 338kts
01-Dec-19 18:49 37.740642 -120.074240 253 33216ft 326kts
01-Dec-19 18:50 37.726420 -120.187602 254 31330ft 333kts
01-Dec-19 18:51 37.711126 -120.309335 254 29190ft 355kts
01-Dec-19 18:52 37.695520 -120.433368 255 26767ft 358kts
01-Dec-19 18:53 37.681367 -120.557477 255 24806ft 356kts
01-Dec-19 18:54 37.666934 -120.679860 255 23035ft 346kts
01-Dec-19 18:55 37.652896 -120.798111 255 21213ft 336kts
01-Dec-19 18:56 37.639127 -120.912398 255 19780ft 312kts
01-Dec-19 18:57 37.643167 -121.017681 276 18477ft 308kts
01-Dec-19 18:58 37.663612 -121.120942 274 16873ft 299kts
01-Dec-19 18:59 37.682110 -121.221948 274 15406ft 292kts
01-Dec-19 19:00 37.700345 -121.320915 274 14086ft 287kts
01-Dec-19 19:01 37.718144 -121.418170 275 12258ft 280kts
01-Dec-19 19:02 37.735475 -121.513485 275 10283ft 279kts
01-Dec-19 19:03 37.752628 -121.607101 274 9505ft 263kts
01-Dec-19 19:04 37.768927 -121.697265 274 9043ft 265kts
01-Dec-19 19:05 37.785070 -121.786305 272 8644ft 246kts
01-Dec-19 19:06 37.799749 -121.868125 272 8172ft 227kts
01-Dec-19 19:07 37.813708 -121.946521 272 7388ft 227kts
01-Dec-19 19:08 37.827532 -122.024245 272 6371ft 228kts
01-Dec-19 19:09 37.841529 -122.102774 273 5367ft 228kts
01-Dec-19 19:10 37.854539 -122.176969 272 5049ft 198kts
01-Dec-19 19:11 37.838591 -122.228030 200 5009ft 162kts
01-Dec-19 19:12 37.801859 -122.251131 204 3808ft 137kts
01-Dec-19 19:13 37.768318 -122.273418 203 3079ft 134kts
01-Dec-19 19:14 37.735334 -122.295391 203 2381ft 133kts
01-Dec-19 19:15 37.702724 -122.317071 202 1669ft 131kts
01-Dec-19 19:16 37.670040 -122.338766 201 975ft 139kts
01-Dec-19 19:17 37.635770 -122.361519 201 241ft 138kts
01-Dec-19 19:18 37.616487 -122.375818 274 27ft 11kts
01-Dec-19 19:19 37.616519 -122.376087 281 27ft 7kts
01-Dec-19 19:20 37.617789 -122.379456 351 27ft 12kts
01-Dec-19 19:21 37.618298 -122.380798 235 27ft 0kts
01-Dec-19 19:22 37.618298 -122.380798 235 27ft 0kts
01-Dec-19 19:23 37.618298 -122.380798 235 27ft 0kts

Navigation Log

Ident Type
Flight plan parsing failed, navigation log unavailable